Archival Weather

General Ignacio P Garcia Intl

General Ignacio P Garcia Intl, Mexico (MMHO)

Report from: Wednesday, December 6, 2023 2:40 AM CST
Current time: Tuesday, May 21, 2024 11:15 AM CST

Current weather – Weather history – Daily summaries
Weather forecast

Temperature14.0°C (57.2°F)
Dew point1.0°C (33.8°F)
Winds 3 kts (1.5 m/s, 3.5 mph) North-Northwest (330°)
Visibility10 mi. (16.1 km)
Clouds Few clouds 9,000 ft. (2,743 m)
Scattered clouds 20,000 ft. (6,096 m)
Altimeter30.05 in.Hg (1018 mB)
Relative humidity41 %
Density altitude-161 ft. (-49 m)
Sea-level pressure101.8 kPa (1018 mB, 30.05 in.Hg)
Remarks Pressure falling
Flight conditions Visual Meteorological Conditions
Raw dataMMHO 060840Z 33003KT 10SM FEW090 SCT200 14/01 A3005 RMK SLP175 57010 955 8/038 HZY
An error has occurred. This application may no longer respond until reloaded. Reload 🗙